createdAt,value
2023-03-26T00:04:28.093Z,98710.63
2023-03-26T00:09:30.608Z,98670.47
2023-03-26T00:14:32.873Z,98715.91
2023-03-26T00:19:35.240Z,98694.63
2023-03-26T00:24:37.484Z,98666.28
2023-03-26T00:29:40.086Z,98676.59
2023-03-26T00:34:42.638Z,98626.09
2023-03-26T00:39:49.274Z,98632.84
2023-03-26T00:44:55.388Z,98638.38
2023-03-26T00:49:57.706Z,98702.66
2023-03-26T00:54:59.979Z,98667.91
2023-03-26T01:00:16.120Z,98611.22
2023-03-26T01:05:34.013Z,98599.00
2023-03-26T01:10:38.882Z,98600.56
2023-03-26T01:15:42.015Z,98634.94
2023-03-26T01:20:47.017Z,98619.16
2023-03-26T01:26:09.124Z,98530.94
2023-03-26T01:31:30.768Z,98501.50
2023-03-26T01:37:06.164Z,98519.97
2023-03-26T01:42:16.470Z,98538.06
2023-03-26T01:47:20.740Z,98494.06
2023-03-26T01:52:26.176Z,98532.69
2023-03-26T01:57:45.059Z,98517.75
2023-03-26T02:03:17.778Z,98492.19
2023-03-26T02:08:46.703Z,98423.34
2023-03-26T02:13:49.699Z,98435.94
2023-03-26T02:18:55.842Z,98423.34
2023-03-26T02:24:03.152Z,98461.16
2023-03-26T02:29:07.931Z,98423.34
2023-03-26T02:34:13.427Z,98370.66
2023-03-26T02:39:22.550Z,98434.75
2023-03-26T02:44:31.430Z,98436.72
2023-03-26T02:49:34.211Z,98361.59
2023-03-26T02:54:37.644Z,98466.72
2023-03-26T02:59:50.484Z,98369.91
2023-03-26T03:05:18.210Z,98351.81
2023-03-26T03:10:22.115Z,98363.63
2023-03-26T03:15:44.706Z,98321.91
2023-03-26T03:20:47.640Z,98316.38
2023-03-26T03:25:52.981Z,98391.88
2023-03-26T03:30:57.774Z,98352.19
2023-03-26T03:36:20.504Z,98317.16
2023-03-26T03:41:32.581Z,98262.13
2023-03-26T03:46:37.395Z,98257.41
2023-03-26T03:51:39.745Z,98290.06
2023-03-26T03:56:51.480Z,98232.25
2023-03-26T04:02:21.411Z,98262.94
2023-03-26T04:07:32.203Z,98216.53
2023-03-26T04:12:40.326Z,98240.88
2023-03-26T04:17:44.983Z,98218.88
2023-03-26T04:22:49.915Z,98128.50
2023-03-26T04:27:58.528Z,98191.78
2023-03-26T04:33:30.497Z,98192.56
2023-03-26T04:38:41.656Z,98193.34
2023-03-26T04:43:50.827Z,98189.81
2023-03-26T04:49:11.253Z,98090.44
2023-03-26T04:54:19.898Z,98200.81
2023-03-26T04:59:34.727Z,98127.34
2023-03-26T05:04:40.264Z,98165.06
2023-03-26T05:09:43.886Z,98141.13
2023-03-26T05:14:51.050Z,98150.53
2023-03-26T05:20:03.857Z,98109.31
2023-03-26T05:25:08.050Z,98162.31
2023-03-26T05:30:14.825Z,98127.75
2023-03-26T05:35:20.925Z,98091.19
2023-03-26T05:40:23.412Z,98051.00
2023-03-26T05:45:36.838Z,97993.75
2023-03-26T05:50:55.736Z,97998.03
2023-03-26T05:55:59.290Z,98067.84
2023-03-26T06:01:39.771Z,97991.63
2023-03-26T06:07:04.680Z,98067.56
2023-03-26T06:12:09.461Z,97991.44
2023-03-26T06:17:12.893Z,98034.13
2023-03-26T06:22:50.665Z,97995.66
2023-03-26T06:27:57.748Z,98042.81
2023-03-26T06:33:19.042Z,97972.03
2023-03-26T06:38:25.465Z,98012.41
2023-03-26T06:43:28.006Z,97999.50
2023-03-26T06:48:49.133Z,97988.19
2023-03-26T06:54:10.501Z,97919.00
2023-03-26T06:59:39.094Z,97978.16
2023-03-26T07:04:59.771Z,97988.22
2023-03-26T07:10:40.943Z,97938.78
2023-03-26T07:15:49.383Z,97929.25
2023-03-26T07:21:12.944Z,97925.34
2023-03-26T07:26:45.688Z,98009.53
2023-03-26T07:32:09.458Z,97968.22
2023-03-26T07:38:37.779Z,98037.59
2023-03-26T07:44:41.015Z,98010.22
2023-03-26T07:49:57.904Z,98027.72
2023-03-26T07:55:15.234Z,98088.19
2023-03-26T08:00:47.163Z,98066.34
2023-03-26T08:06:06.207Z,98048.31
2023-03-26T08:12:17.287Z,98083.56
2023-03-26T08:17:49.415Z,98012.50
2023-03-26T08:23:15.729Z,98114.88
2023-03-26T08:28:35.755Z,98080.22
2023-03-26T08:33:40.977Z,98136.84
2023-03-26T08:38:46.404Z,98106.53
2023-03-26T08:44:26.069Z,98139.97
2023-03-26T08:49:49.954Z,98167.84
2023-03-26T08:55:30.934Z,98055.38
2023-03-26T09:00:52.963Z,98032.88
2023-03-26T09:06:17.167Z,98068.09
2023-03-26T09:11:53.356Z,98121.69
2023-03-26T09:17:40.200Z,98188.44
2023-03-26T09:22:53.621Z,98195.06
2023-03-26T09:28:52.282Z,98120.44
2023-03-26T09:34:28.834Z,98134.66
2023-03-26T09:40:10.107Z,98105.19
2023-03-26T09:45:43.331Z,98046.78
2023-03-26T09:51:27.781Z,98058.94
2023-03-26T09:57:06.456Z,98081.44
2023-03-26T10:02:20.763Z,98105.28
2023-03-26T10:07:50.357Z,98160.47
2023-03-26T10:13:19.189Z,98131.41
2023-03-26T10:19:00.274Z,98174.41
2023-03-26T10:24:56.029Z,98090.03
2023-03-26T10:30:42.457Z,98222.47
2023-03-26T10:36:32.376Z,98082.03
2023-03-26T10:42:00.968Z,98188.00
2023-03-26T10:47:32.339Z,98224.41
2023-03-26T10:52:49.765Z,98143.50
2023-03-26T10:58:16.991Z,98122.81
2023-03-26T11:03:51.924Z,98170.53
2023-03-26T11:09:13.515Z,98115.09
2023-03-26T11:14:51.290Z,98085.47
2023-03-26T11:20:09.487Z,98065.09
2023-03-26T11:25:32.033Z,98042.16
2023-03-26T11:30:47.365Z,98089.66
2023-03-26T11:35:55.529Z,98003.75
2023-03-26T11:41:00.296Z,98004.53
2023-03-26T11:46:22.126Z,98064.16
2023-03-26T11:51:33.742Z,98056.34
2023-03-26T11:57:06.089Z,98064.09
2023-03-26T12:02:17.069Z,98024.81
2023-03-26T12:07:33.891Z,97960.00
2023-03-26T12:12:41.732Z,98014.63
2023-03-26T12:17:44.586Z,97998.91
2023-03-26T12:22:47.894Z,98065.94
2023-03-26T12:28:02.552Z,98014.78
2023-03-26T12:33:27.458Z,98020.16
2023-03-26T12:38:37.617Z,98034.59
2023-03-26T12:44:56.340Z,98008.44
2023-03-26T12:49:11.887Z,97964.94
2023-03-26T12:54:23.921Z,98030.28
2023-03-26T12:59:47.531Z,98030.66
2023-03-26T13:05:08.915Z,98047.97
2023-03-26T13:10:48.349Z,97988.06
2023-03-26T13:16:01.285Z,98032.63
2023-03-26T13:21:13.047Z,98012.81
2023-03-26T13:26:55.531Z,98011.34
2023-03-26T13:32:30.553Z,97941.16
2023-03-26T13:37:49.936Z,97915.75
2023-03-26T13:43:24.027Z,97930.66
2023-03-26T13:48:36.771Z,97944.13
2023-03-26T13:53:50.910Z,97939.41
2023-03-26T13:59:03.651Z,97954.31
2023-03-26T14:04:20.898Z,98015.53
2023-03-26T14:09:40.858Z,97993.13
2023-03-26T14:15:04.194Z,98087.69
2023-03-26T14:20:19.884Z,97964.47
2023-03-26T14:26:01.475Z,98033.88
2023-03-26T14:31:19.559Z,98032.47
2023-03-26T14:36:49.310Z,98101.50
2023-03-26T14:42:03.308Z,98091.78
2023-03-26T14:47:22.242Z,98015.91
2023-03-26T14:52:41.270Z,98077.97
2023-03-26T14:58:39.694Z,97991.44
2023-03-26T15:03:53.036Z,97990.41
2023-03-26T15:09:14.001Z,98044.56
2023-03-26T15:15:02.220Z,98007.63
2023-03-26T15:20:40.775Z,97984.13
2023-03-26T15:26:24.182Z,97982.56
2023-03-26T15:31:50.449Z,98018.69
2023-03-26T15:37:34.436Z,97934.72
2023-03-26T15:43:04.463Z,97966.09
2023-03-26T15:48:13.099Z,97931.56
2023-03-26T15:53:56.573Z,97979.44
2023-03-26T15:59:47.545Z,97970.00
2023-03-26T16:05:03.302Z,97962.94
2023-03-26T16:10:28.298Z,97930.78
2023-03-26T16:15:35.270Z,98022.19
2023-03-26T16:20:54.607Z,98013.94
2023-03-26T16:26:07.677Z,97997.09
2023-03-26T16:31:36.753Z,98014.31
2023-03-26T16:36:43.362Z,97981.34
2023-03-26T16:41:47.233Z,97951.94
2023-03-26T16:46:58.586Z,97963.69
2023-03-26T16:52:13.656Z,98011.56
2023-03-26T16:58:11.228Z,98044.50
2023-03-26T17:03:52.057Z,98018.22
2023-03-26T17:09:31.626Z,98049.22
2023-03-26T17:15:13.220Z,98042.19
2023-03-26T17:20:35.848Z,98056.31
2023-03-26T17:25:54.126Z,98023.72
2023-03-26T17:31:27.669Z,97999.03
2023-03-26T17:36:43.913Z,98046.13
2023-03-26T17:42:13.202Z,98073.25
2023-03-26T17:47:29.917Z,98045.34
2023-03-26T17:52:54.554Z,98114.06
2023-03-26T17:58:06.329Z,98032.81
2023-03-26T18:03:31.115Z,98046.13
2023-03-26T18:08:55.200Z,98002.94
2023-03-26T18:14:31.112Z,98092.47
2023-03-26T18:19:49.890Z,98048.50
2023-03-26T18:24:56.177Z,98052.44
2023-03-26T18:30:13.023Z,97989.63
2023-03-26T18:35:20.621Z,98010.78
2023-03-26T18:40:34.266Z,97942.50
2023-03-26T18:45:41.231Z,98032.75
2023-03-26T18:50:43.955Z,98007.66
2023-03-26T18:55:46.451Z,98053.16
2023-03-26T19:00:53.070Z,98046.88
2023-03-26T19:05:58.229Z,98025.97
2023-03-26T19:11:05.038Z,97985.19
2023-03-26T19:16:24.238Z,98000.19
2023-03-26T19:21:26.754Z,98046.47
2023-03-26T19:26:29.311Z,98002.09
2023-03-26T19:31:39.022Z,98027.41
2023-03-26T19:37:01.175Z,97925.75
2023-03-26T19:42:06.624Z,97992.88
2023-03-26T19:47:48.560Z,97988.69
2023-03-26T19:53:37.579Z,97968.25
2023-03-26T19:58:41.612Z,97942.34
2023-03-26T20:03:48.612Z,97972.47
2023-03-26T20:08:52.437Z,97990.88
2023-03-26T20:13:54.631Z,97987.72
2023-03-26T20:18:58.441Z,97961.13
2023-03-26T20:24:01.728Z,97957.78
2023-03-26T20:29:04.778Z,97987.28
2023-03-26T20:34:19.241Z,98009.16
2023-03-26T20:39:25.486Z,98021.56
2023-03-26T20:44:28.211Z,97998.28
2023-03-26T20:49:32.349Z,98025.59
2023-03-26T20:54:35.938Z,98006.81
2023-03-26T20:59:38.334Z,98039.81
2023-03-26T21:04:41.681Z,97987.50
2023-03-26T21:09:45.064Z,97981.63
2023-03-26T21:14:47.641Z,98048.31
2023-03-26T21:19:50.699Z,97994.91
2023-03-26T21:25:10.487Z,98051.75
2023-03-26T21:30:16.606Z,98012.78
2023-03-26T21:35:20.034Z,98069.47
2023-03-26T21:40:22.544Z,98058.78
2023-03-26T21:45:25.289Z,98079.66
2023-03-26T21:50:28.542Z,98069.91
2023-03-26T21:55:43.804Z,98090.00
2023-03-26T22:01:01.609Z,98023.56
2023-03-26T22:06:20.899Z,98100.50
2023-03-26T22:11:23.144Z,98075.38
2023-03-26T22:16:25.599Z,98081.25
2023-03-26T22:21:28.027Z,98083.59
2023-03-26T22:26:32.057Z,98065.47
2023-03-26T22:31:35.003Z,98081.84
2023-03-26T22:36:39.782Z,98079.84
2023-03-26T22:41:43.592Z,98112.78
2023-03-26T22:46:47.453Z,98131.78
2023-03-26T22:51:50.436Z,98150.94
2023-03-26T22:56:52.832Z,98151.69
2023-03-26T23:01:56.146Z,98127.06
2023-03-26T23:06:58.846Z,98145.22
2023-03-26T23:12:01.610Z,98174.41
2023-03-26T23:17:04.320Z,98158.16
2023-03-26T23:22:06.590Z,98195.66
2023-03-26T23:27:09.154Z,98184.91
2023-03-26T23:32:23.530Z,98194.03
2023-03-26T23:37:29.568Z,98193.03
2023-03-26T23:42:36.231Z,98193.00
2023-03-26T23:47:42.748Z,98202.38
2023-03-26T23:52:46.008Z,98232.16
2023-03-26T23:57:48.704Z,98237.06
